Terminal Aerodrome Forecast
Issued by NWS Goodland, KS

Home | Current Version | Previous Version | Text Only | Print | Product List | Glossary On
Versions: 1 2 3 4 5 6 7 8 9 10 11 12 13 14 15 16 17 18 19 20 21 22
000
FTUS43 KGLD 251146
TAFGLD
TAF
KGLD 251146Z 2512/2612 29010KT P6SM BKN250
     FM251500 34009KT P6SM FEW150
     FM251900 04006KT P6SM FEW060
     FM252300 11012KT P6SM SCT060 BKN120
     FM260500 10012KT P6SM OVC006
     FM260900 11012KT 5SM BR VCTS OVC002CB=

USA.gov is the U.S. government's official web portal to all federal, state and local government web resources and services.